»·PEaware :: UAL982 KDFW-KSNA

UAL982 :: KDFW-KSNA

FLIGHT INFORMATION

Flight Status: Arrived
Operator:
United Airlines
More flights by this operator :: More flights under this callsign
Pilot: Justin Snapp (9599)
Aircraft: BOEING 737-300
(B733)
More flights by this aircraft type
Origin: KDFW Dallas-Ft Worth Intl
United States
Destination: KSNA John Wayne-Orange Co
United States
More flights between these airports :: More routes between these airports
Route: +WSTEX2 CIKAN WIBAN UNNOS CME J65 TCS J108 SJN J74 NABOB HIMDU KEFFR4
File this flight plan on PilotEdge
Remarks:
Altitude:
(Current/Filed)
30,000ft
Speed:
(Current/Filed)
450kts
Departed: 03-Jun-17 07:19 PM
Arrived: 03-Jun-17 10:12 PM
Distance/Time
Traveled:
1044nm/2:53
Distance/Time
To Go:
Arrived

Flight Plot

Page will automatically refresh every two minutes.

Flight plan parsing failed; only flown route is shown


Map Options




Map Legend


Flown Route
Filed Route
Departure Airport
Arrival Airport
Navaid (VOR, NDB)
Fix

Horizontal Profiles

Position Reports

Time Latitude Longitude Heading Altitude Ground
Speed
03-Jun-17 18:52 32.906436 -97.035554 222 613ft 0kts
03-Jun-17 18:53 32.906436 -97.035554 222 613ft 0kts
03-Jun-17 18:54 32.906607 -97.035374 222 613ft 3kts
03-Jun-17 18:55 32.906668 -97.034833 301 613ft 0kts
03-Jun-17 18:56 32.906668 -97.034833 301 613ft 0kts
03-Jun-17 18:57 32.906668 -97.034833 301 613ft 0kts
03-Jun-17 18:58 32.906668 -97.034833 301 613ft 0kts
03-Jun-17 18:59 32.906668 -97.034833 301 613ft 0kts
03-Jun-17 19:00 32.906668 -97.034833 301 613ft 0kts
03-Jun-17 19:01 32.906668 -97.034833 301 613ft 0kts
03-Jun-17 19:02 32.906668 -97.034833 301 613ft 0kts
03-Jun-17 19:03 32.906668 -97.034833 301 613ft 0kts
03-Jun-17 19:04 32.906668 -97.034833 301 613ft 0kts
03-Jun-17 19:05 32.906668 -97.034833 301 613ft 0kts
03-Jun-17 19:06 32.906668 -97.034833 301 613ft 0kts
03-Jun-17 19:07 32.906668 -97.034833 301 613ft 0kts
03-Jun-17 19:08 32.906668 -97.034833 301 613ft 0kts
03-Jun-17 19:09 32.906668 -97.034833 301 613ft 0kts
03-Jun-17 19:10 32.906668 -97.034833 301 613ft 0kts
03-Jun-17 19:11 32.906668 -97.034833 301 613ft 0kts
03-Jun-17 19:12 32.906783 -97.035061 294 613ft 0kts
03-Jun-17 19:13 32.906781 -97.034958 311 613ft 4kts
03-Jun-17 19:14 32.906780 -97.034985 281 613ft 16kts
03-Jun-17 19:15 32.907118 -97.035565 304 613ft 11kts
03-Jun-17 19:16 32.908554 -97.034926 24 613ft 0kts
03-Jun-17 19:17 32.909005 -97.034095 89 613ft 13kts
03-Jun-17 19:18 32.912290 -97.031905 0 613ft 19kts
03-Jun-17 19:19 32.914619 -97.029933 144 613ft 6kts
03-Jun-17 19:20 32.913676 -97.029906 177 613ft 0kts
03-Jun-17 19:21 32.895422 -97.030051 180 618ft 154kts
03-Jun-17 19:22 32.855211 -97.026888 189 1601ft 196kts
03-Jun-17 19:23 32.794507 -97.039158 187 3345ft 242kts
03-Jun-17 19:24 32.725868 -97.052038 200 5603ft 266kts
03-Jun-17 19:25 32.694842 -97.128396 254 7980ft 280kts
03-Jun-17 19:26 32.689560 -97.220989 268 10303ft 302kts
03-Jun-17 19:27 32.687205 -97.331802 268 11818ft 352kts
03-Jun-17 19:28 32.684797 -97.448530 268 14304ft 364kts
03-Jun-17 19:29 32.682190 -97.570212 267 16657ft 375kts
03-Jun-17 19:30 32.679605 -97.685998 267 18644ft 387kts
03-Jun-17 19:31 32.674056 -97.788512 263 20357ft 394kts
03-Jun-17 19:32 32.663828 -97.918276 263 22277ft 404kts
03-Jun-17 19:33 32.653360 -98.052410 263 24022ft 415kts
03-Jun-17 19:34 32.642494 -98.189821 262 25626ft 425kts
03-Jun-17 19:35 32.630787 -98.330865 262 27115ft 434kts
03-Jun-17 19:36 32.619373 -98.471421 262 29070ft 427kts
03-Jun-17 19:37 32.607843 -98.611692 262 30016ft 427kts
03-Jun-17 19:38 32.596851 -98.744073 261 29985ft 424kts
03-Jun-17 19:39 32.585095 -98.883459 261 29989ft 424kts
03-Jun-17 19:40 32.573261 -99.021908 261 29990ft 423kts
03-Jun-17 19:41 32.561270 -99.160399 261 29991ft 423kts
03-Jun-17 19:42 32.548414 -99.299019 261 29998ft 429kts
03-Jun-17 19:43 32.538871 -99.440114 263 30001ft 430kts
03-Jun-17 19:44 32.530524 -99.580866 263 30001ft 430kts
03-Jun-17 19:45 32.522281 -99.717233 262 29990ft 429kts
03-Jun-17 19:46 32.513692 -99.856561 262 29984ft 429kts
03-Jun-17 19:47 32.504852 -99.997291 262 29982ft 429kts
03-Jun-17 19:48 32.495832 -100.138267 262 29990ft 429kts
03-Jun-17 19:49 32.486668 -100.278956 262 30029ft 429kts
03-Jun-17 19:50 32.480846 -100.419748 265 30047ft 430kts
03-Jun-17 19:51 32.477314 -100.561026 265 30047ft 430kts
03-Jun-17 19:52 32.473728 -100.699653 265 30032ft 430kts
03-Jun-17 19:53 32.469936 -100.840025 265 30033ft 431kts
03-Jun-17 19:54 32.465964 -100.981101 267 30023ft 433kts
03-Jun-17 19:55 32.461745 -101.124787 267 30043ft 438kts
03-Jun-17 19:56 32.457957 -101.250243 267 30047ft 437kts
03-Jun-17 19:57 32.453456 -101.393364 267 30057ft 437kts
03-Jun-17 19:58 32.448782 -101.536465 267 30057ft 436kts
03-Jun-17 19:59 32.444073 -101.676907 267 30019ft 437kts
03-Jun-17 20:00 32.439111 -101.819752 267 30057ft 437kts
03-Jun-17 20:01 32.433953 -101.963076 267 30048ft 437kts
03-Jun-17 20:02 32.428647 -102.106377 267 30051ft 437kts
03-Jun-17 20:03 32.423161 -102.249932 267 30066ft 436kts
03-Jun-17 20:04 32.417525 -102.393061 267 30069ft 436kts
03-Jun-17 20:05 32.411755 -102.535885 267 30074ft 436kts
03-Jun-17 20:06 32.405906 -102.676312 266 30042ft 437kts
03-Jun-17 20:07 32.418117 -102.815486 302 30079ft 438kts
03-Jun-17 20:08 32.481238 -102.936660 299 30088ft 433kts
03-Jun-17 20:09 32.540663 -103.061043 300 30102ft 434kts
03-Jun-17 20:10 32.600086 -103.186039 301 30099ft 438kts
03-Jun-17 20:11 32.659787 -103.312059 301 30104ft 440kts
03-Jun-17 20:12 32.719554 -103.438653 301 30101ft 440kts
03-Jun-17 20:13 32.779087 -103.565188 301 30102ft 440kts
03-Jun-17 20:14 32.837290 -103.689445 301 30090ft 440kts
03-Jun-17 20:15 32.896284 -103.815837 301 30090ft 441kts
03-Jun-17 20:16 32.955942 -103.942947 304 30074ft 441kts
03-Jun-17 20:17 33.023865 -104.063564 305 30073ft 438kts
03-Jun-17 20:18 33.092050 -104.183868 305 30067ft 438kts
03-Jun-17 20:19 33.154402 -104.293822 305 30065ft 438kts
03-Jun-17 20:20 33.222137 -104.414058 305 30065ft 438kts
03-Jun-17 20:21 33.289427 -104.533924 305 30065ft 438kts
03-Jun-17 20:22 33.343083 -104.659134 271 30050ft 443kts
03-Jun-17 20:23 33.335849 -104.799830 270 30071ft 445kts
03-Jun-17 20:24 33.334056 -104.946559 271 30095ft 445kts
03-Jun-17 20:25 33.332235 -105.094187 270 30249ft 451kts
03-Jun-17 20:26 33.330251 -105.240027 270 30307ft 451kts
03-Jun-17 20:27 33.328063 -105.388332 270 30303ft 451kts
03-Jun-17 20:28 33.325714 -105.535584 270 30303ft 451kts
03-Jun-17 20:29 33.323259 -105.678948 270 30269ft 451kts
03-Jun-17 20:30 33.320565 -105.822615 270 30307ft 442kts
03-Jun-17 20:31 33.317647 -105.968787 270 30235ft 443kts
03-Jun-17 20:32 33.314532 -106.115943 270 30138ft 444kts
03-Jun-17 20:33 33.311284 -106.259502 270 30096ft 426kts
03-Jun-17 20:34 33.307832 -106.404477 270 30095ft 445kts
03-Jun-17 20:35 33.304121 -106.552272 270 30097ft 444kts
03-Jun-17 20:36 33.300385 -106.694768 269 30087ft 444kts
03-Jun-17 20:37 33.296401 -106.840259 269 30111ft 445kts
03-Jun-17 20:38 33.292112 -106.985451 269 30103ft 436kts
03-Jun-17 20:39 33.288054 -107.117728 269 30114ft 438kts
03-Jun-17 20:40 33.283625 -107.262130 273 30107ft 437kts
03-Jun-17 20:41 33.344068 -107.380570 310 30118ft 429kts
03-Jun-17 20:42 33.416383 -107.493765 308 30110ft 428kts
03-Jun-17 20:43 33.487013 -107.606730 308 30146ft 413kts
03-Jun-17 20:44 33.545767 -107.701170 308 30075ft 397kts
03-Jun-17 20:45 33.591658 -107.775144 308 30077ft 424kts
03-Jun-17 20:46 33.664360 -107.892528 308 30110ft 447kts
03-Jun-17 20:47 33.738350 -108.012285 308 30111ft 447kts
03-Jun-17 20:48 33.812085 -108.132007 308 30125ft 447kts
03-Jun-17 20:49 33.885903 -108.252262 308 30201ft 446kts
03-Jun-17 20:50 33.959330 -108.372275 308 30250ft 447kts
03-Jun-17 20:51 34.032581 -108.492401 308 30247ft 446kts
03-Jun-17 20:52 34.104812 -108.611231 308 30241ft 446kts
03-Jun-17 20:53 34.172088 -108.722095 307 30251ft 446kts
03-Jun-17 20:54 34.244823 -108.842564 307 30248ft 446kts
03-Jun-17 20:55 34.317656 -108.963562 307 30199ft 447kts
03-Jun-17 20:56 34.390031 -109.084215 306 30131ft 432kts
03-Jun-17 20:57 34.426371 -109.217159 263 30126ft 448kts
03-Jun-17 20:58 34.416110 -109.366697 270 30113ft 445kts
03-Jun-17 20:59 34.410548 -109.516163 270 30110ft 445kts
03-Jun-17 21:00 34.405003 -109.659524 269 30086ft 426kts
03-Jun-17 21:01 34.399410 -109.800863 269 30150ft 428kts
03-Jun-17 21:02 34.393506 -109.944258 269 30200ft 427kts
03-Jun-17 21:03 34.387408 -110.087966 269 30202ft 427kts
03-Jun-17 21:04 34.384169 -110.162714 269 30203ft 427kts
03-Jun-17 21:05 34.377674 -110.307115 269 30212ft 436kts
03-Jun-17 21:06 34.370903 -110.453154 269 30202ft 435kts
03-Jun-17 21:07 34.364112 -110.595715 269 30172ft 408kts
03-Jun-17 21:08 34.358010 -110.724773 269 30104ft 395kts
03-Jun-17 21:09 34.351442 -110.858126 269 30146ft 396kts
03-Jun-17 21:10 34.344871 -110.990875 268 30148ft 395kts
03-Jun-17 21:11 34.338230 -111.122968 268 30147ft 394kts
03-Jun-17 21:12 34.331445 -111.255109 268 30147ft 394kts
03-Jun-17 21:13 34.330567 -111.386911 275 30148ft 392kts
03-Jun-17 21:14 34.335716 -111.518195 274 30147ft 392kts
03-Jun-17 21:15 34.340573 -111.649796 274 30144ft 392kts
03-Jun-17 21:16 34.345177 -111.778940 274 30121ft 393kts
03-Jun-17 21:17 34.349747 -111.910520 274 30102ft 392kts
03-Jun-17 21:18 34.354186 -112.042595 274 30078ft 396kts
03-Jun-17 21:19 34.358494 -112.176119 274 30106ft 399kts
03-Jun-17 21:20 34.362666 -112.309648 274 30100ft 398kts
03-Jun-17 21:21 34.366696 -112.443277 274 30102ft 398kts
03-Jun-17 21:22 34.370585 -112.577090 274 30101ft 398kts
03-Jun-17 21:23 34.374180 -112.706054 273 30059ft 411kts
03-Jun-17 21:24 34.377947 -112.848607 273 30115ft 428kts
03-Jun-17 21:25 34.381557 -112.991087 271 30094ft 422kts
03-Jun-17 21:26 34.385004 -113.133574 271 30104ft 425kts
03-Jun-17 21:27 34.388292 -113.276314 271 30101ft 424kts
03-Jun-17 21:28 34.391414 -113.419026 271 29963ft 425kts
03-Jun-17 21:29 34.394372 -113.561817 271 29797ft 425kts
03-Jun-17 21:30 34.397078 -113.700292 270 29792ft 425kts
03-Jun-17 21:31 34.399701 -113.842900 270 29800ft 426kts
03-Jun-17 21:32 34.402168 -113.985856 270 29799ft 426kts
03-Jun-17 21:33 34.378369 -114.123902 254 28474ft 415kts
03-Jun-17 21:34 34.349464 -114.255608 254 26871ft 397kts
03-Jun-17 21:35 34.321860 -114.382280 254 25023ft 388kts
03-Jun-17 21:36 34.295578 -114.502410 254 23786ft 388kts
03-Jun-17 21:37 34.267316 -114.630682 254 23805ft 397kts
03-Jun-17 21:38 34.241861 -114.744539 253 23797ft 396kts
03-Jun-17 21:39 34.213278 -114.873275 253 23822ft 401kts
03-Jun-17 21:40 34.184644 -115.001277 253 23789ft 395kts
03-Jun-17 21:41 34.155798 -115.129468 253 23796ft 395kts
03-Jun-17 21:42 34.127013 -115.256608 253 23815ft 393kts
03-Jun-17 21:43 34.097119 -115.387623 253 23951ft 399kts
03-Jun-17 21:44 34.068105 -115.513893 253 23967ft 393kts
03-Jun-17 21:45 34.033278 -115.638480 246 23922ft 391kts
03-Jun-17 21:46 33.999081 -115.741303 246 23876ft 391kts
03-Jun-17 21:47 33.960132 -115.858516 246 23826ft 391kts
03-Jun-17 21:48 33.919722 -115.979665 246 23773ft 391kts
03-Jun-17 21:49 33.880881 -116.095167 246 23761ft 391kts
03-Jun-17 21:50 33.849178 -116.218956 272 23735ft 418kts
03-Jun-17 21:51 33.863149 -116.359768 275 21506ft 437kts
03-Jun-17 21:52 33.873270 -116.496688 271 20121ft 389kts
03-Jun-17 21:53 33.879365 -116.626706 271 19049ft 399kts
03-Jun-17 21:54 33.884871 -116.745953 271 17631ft 376kts
03-Jun-17 21:55 33.888007 -116.865284 260 17071ft 365kts
03-Jun-17 21:56 33.873857 -116.982200 259 15569ft 345kts
03-Jun-17 21:57 33.860390 -117.094963 259 13742ft 337kts
03-Jun-17 21:58 33.847355 -117.203720 259 12266ft 311kts
03-Jun-17 21:59 33.836758 -117.291683 258 11936ft 242kts
03-Jun-17 22:00 33.847319 -117.368591 281 10012ft 231kts
03-Jun-17 22:01 33.862985 -117.441551 281 8063ft 217kts
03-Jun-17 22:02 33.830868 -117.484273 180 7964ft 220kts
03-Jun-17 22:03 33.786167 -117.515370 255 7989ft 219kts
03-Jun-17 22:04 33.773098 -117.585735 251 7855ft 219kts
03-Jun-17 22:05 33.784340 -117.649473 321 6871ft 226kts
03-Jun-17 22:06 33.819775 -117.679799 321 6194ft 224kts
03-Jun-17 22:07 33.866845 -117.720161 321 5149ft 192kts
03-Jun-17 22:08 33.876176 -117.766182 219 4102ft 174kts
03-Jun-17 22:09 33.831769 -117.778906 182 3985ft 174kts
03-Jun-17 22:10 33.786532 -117.796689 211 3000ft 185kts
03-Jun-17 22:11 33.741844 -117.826888 207 1399ft 170kts
03-Jun-17 22:12 33.704887 -117.850328 207 611ft 146kts
03-Jun-17 22:13 33.671540 -117.871415 207 63ft 77kts
03-Jun-17 22:14 33.669005 -117.871429 127 63ft 1kts
03-Jun-17 22:15 33.669399 -117.870609 40 63ft 7kts
03-Jun-17 22:16 33.671080 -117.868870 46 63ft 0kts
03-Jun-17 22:17 33.671598 -117.868389 22 63ft 5kts
03-Jun-17 22:18 33.673418 -117.866841 26 63ft 11kts
03-Jun-17 22:19 33.676258 -117.865080 27 63ft 15kts
03-Jun-17 22:20 33.680737 -117.862219 26 63ft 20kts
03-Jun-17 22:21 33.681148 -117.861318 119 63ft 1kts

Navigation Log

Ident Type
Flight plan parsing failed, navigation log unavailable